Time;durP1;ratioP1;P1;durP2;ratioP2;P2;SDS_P1;SDS_P2;PMS_P1;PMS_P2;Temp;Humidity;BMP_temperature;BMP_pressure;BME280_temperature;BME280_humidity;BME280_pressure;Samples;Min_cycle;Max_cycle;Signal;HPM_P1;HPM_P2
2020/12/14 00:01:18;;;;;;;24.23;12.37;;;;;;;7.76;59.61;99629.78;4386483;32;20124;-91
2020/12/14 00:03:44;;;;;;;23.98;12.77;;;;;;;7.51;59.60;99634.66;4385342;32;32871;-90
2020/12/14 00:06:09;;;;;;;22.00;12.90;;;;;;;7.67;59.60;99634.28;4385471;32;28219;-91
2020/12/14 00:08:34;;;;;;;19.40;10.07;;;;;;;7.20;59.58;99647.38;4385866;32;20179;-91
2020/12/14 00:11:00;;;;;;;23.45;12.15;;;;;;;7.30;59.59;99649.75;4385462;32;20102;-91
2020/12/14 00:13:25;;;;;;;21.85;12.27;;;;;;;7.38;59.59;99639.25;4398221;32;20110;-91
2020/12/14 00:15:51;;;;;;;25.85;13.27;;;;;;;7.27;59.59;99652.41;4386444;32;20824;-90
2020/12/14 00:18:16;;;;;;;25.35;13.20;;;;;;;7.37;59.59;99655.69;4385996;32;20118;-91
2020/12/14 00:20:41;;;;;;;18.77;10.65;;;;;;;7.27;59.58;99661.91;4385787;32;22139;-91
2020/12/14 00:23:07;;;;;;;20.20;11.35;;;;;;;7.38;59.58;99663.41;4386074;32;20492;-91
2020/12/14 00:25:32;;;;;;;23.15;12.32;;;;;;;7.37;59.59;99666.88;4385204;32;28893;-92
2020/12/14 00:27:57;;;;;;;24.33;11.82;;;;;;;7.41;59.59;99666.81;4386034;32;20158;-91
2020/12/14 00:30:23;;;;;;;21.30;11.57;;;;;;;7.54;59.59;99665.66;4386415;32;25076;-92
2020/12/14 00:32:48;;;;;;;23.65;12.15;;;;;;;7.59;59.60;99667.28;4385793;32;20429;-91
2020/12/14 00:35:14;;;;;;;21.48;12.05;;;;;;;7.69;59.61;99665.34;4385493;32;22076;-92
2020/12/14 00:37:39;;;;;;;19.02;10.60;;;;;;;7.74;59.61;99666.09;4385354;32;20927;-91
2020/12/14 00:40:04;;;;;;;19.10;10.55;;;;;;;7.78;59.61;99670.31;4385542;32;20154;-91
2020/12/14 00:42:30;;;;;;;20.45;10.45;;;;;;;7.51;59.60;99679.53;4385537;32;21806;-92
2020/12/14 00:44:55;;;;;;;18.30;10.38;;;;;;;7.39;59.58;99684.97;4398587;32;21041;-92
2020/12/14 00:47:21;;;;;;;20.35;10.98;;;;;;;7.30;59.58;99687.72;4385581;32;20160;-93
2020/12/14 00:49:46;;;;;;;21.65;10.32;;;;;;;7.54;59.59;99689.81;4384922;32;20094;-92
2020/12/14 00:52:11;;;;;;;20.55;10.77;;;;;;;7.56;59.61;99694.97;4385205;32;20129;-94
2020/12/14 00:54:37;;;;;;;17.80;8.90;;;;;;;7.69;59.60;99693.84;4385174;32;20149;-93
2020/12/14 00:57:02;;;;;;;16.42;9.18;;;;;;;7.62;59.61;99695.72;4410729;32;20106;-94
2020/12/14 00:59:28;;;;;;;17.35;9.45;;;;;;;7.73;59.61;99692.88;4412775;32;20118;-93
2020/12/14 01:01:53;;;;;;;19.15;10.50;;;;;;;7.67;59.61;99696.47;4410808;32;20137;-94
2020/12/14 01:04:19;;;;;;;18.05;9.93;;;;;;;7.72;59.61;99698.97;4385544;32;20473;-92
2020/12/14 01:06:45;;;;;;;16.20;9.73;;;;;;;7.53;59.59;99708.00;4410498;32;20102;-92
2020/12/14 01:09:10;;;;;;;19.27;10.07;;;;;;;7.82;59.61;99715.19;4409780;32;20140;-93
2020/12/14 01:11:36;;;;;;;16.37;9.02;;;;;;;7.95;59.63;99722.62;4387134;32;20139;-93
2020/12/14 01:14:01;;;;;;;16.90;9.23;;;;;;;7.69;59.60;99717.16;4410563;32;20149;-93
2020/12/14 01:16:26;;;;;;;16.12;8.77;;;;;;;7.69;59.60;99722.34;4410439;32;20205;-92
2020/12/14 01:18:52;;;;;;;16.33;9.02;;;;;;;7.36;59.59;99718.72;4410386;32;20102;-91
2020/12/14 01:21:21;;;;;;;14.18;8.05;;;;;;;7.42;59.59;99726.34;4423206;32;20113;-91
2020/12/14 01:23:47;;;;;;;15.18;9.05;;;;;;;7.35;59.59;99717.84;4410726;32;20200;-91
2020/12/14 01:26:12;;;;;;;15.35;8.57;;;;;;;7.04;59.58;99722.72;4410805;32;20105;-93
2020/12/14 01:28:37;;;;;;;15.70;8.55;;;;;;;6.96;59.57;99723.75;4410767;32;20150;-92
2020/12/14 01:31:03;;;;;;;15.80;8.88;;;;;;;6.74;59.56;99733.63;4410491;32;20129;-92
2020/12/14 01:33:28;;;;;;;17.17;9.20;;;;;;;6.74;59.56;99723.28;4410313;32;20110;-91
2020/12/14 01:35:54;;;;;;;15.77;8.45;;;;;;;6.64;59.54;99726.91;4410557;32;20117;-92
2020/12/14 01:38:19;;;;;;;17.02;9.48;;;;;;;6.77;59.56;99734.41;4410172;32;20141;-94
2020/12/14 01:40:44;;;;;;;15.18;8.75;;;;;;;6.69;59.55;99732.84;4410795;32;20106;-92
2020/12/14 01:43:10;;;;;;;16.45;8.57;;;;;;;6.86;59.56;99740.31;4410526;32;20108;-92
2020/12/14 01:45:35;;;;;;;19.73;9.77;;;;;;;6.96;59.57;99745.31;4410385;32;20148;-93
2020/12/14 01:48:02;;;;;;;15.35;8.50;;;;;;;7.01;59.56;99751.25;4410537;32;20114;-92
2020/12/14 01:50:28;;;;;;;14.38;8.32;;;;;;;6.79;59.55;99749.91;4410307;32;20090;-92
2020/12/14 01:52:53;;;;;;;13.98;8.18;;;;;;;6.93;59.56;99747.97;4410079;32;20129;-93
2020/12/14 01:55:19;;;;;;;14.98;8.82;;;;;;;7.23;59.58;99743.97;4411027;32;20145;-92
2020/12/14 01:57:44;;;;;;;15.20;9.30;;;;;;;7.29;59.58;99736.06;4410513;32;20098;-92
2020/12/14 02:00:10;;;;;;;15.60;8.65;;;;;;;7.24;59.58;99731.88;4410296;32;20455;-92
2020/12/14 02:02:35;;;;;;;16.92;9.20;;;;;;;7.25;59.59;99742.19;4422859;32;20094;-91
2020/12/14 02:05:01;;;;;;;14.20;8.13;;;;;;;7.44;59.59;99741.84;4410035;32;20125;-92
2020/12/14 02:07:27;;;;;;;17.55;9.80;;;;;;;7.28;59.58;99747.31;4410231;32;20124;-92
2020/12/14 02:09:56;;;;;;;14.98;8.48;;;;;;;7.03;59.58;99752.09;4411817;32;20136;-93
2020/12/14 02:12:25;;;;;;;14.80;8.52;;;;;;;7.39;59.58;99749.72;4410199;32;20109;-93
2020/12/14 02:14:52;;;;;;;13.20;7.95;;;;;;;7.65;59.60;99749.19;4410309;32;20136;-92
2020/12/14 02:17:18;;;;;;;14.77;8.60;;;;;;;7.86;59.62;99753.09;4410298;32;20167;-92
2020/12/14 02:19:44;;;;;;;15.18;8.32;;;;;;;7.29;59.58;99756.78;4410168;32;20120;-92
2020/12/14 02:22:10;;;;;;;15.18;8.48;;;;;;;7.43;59.59;99761.72;4410761;32;20130;-92
2020/12/14 02:24:35;;;;;;;16.90;8.70;;;;;;;7.29;59.58;99755.94;4410973;32;24439;-93
2020/12/14 02:27:00;;;;;;;14.30;9.48;;;;;;;7.42;59.59;99751.41;4410164;32;20089;-92
2020/12/14 02:29:26;;;;;;;16.23;8.70;;;;;;;7.66;59.60;99746.56;4409757;32;20101;-92
2020/12/14 02:31:51;;;;;;;15.45;7.68;;;;;;;7.57;59.60;99751.06;4410036;32;20128;-92
2020/12/14 02:34:17;;;;;;;15.65;8.48;;;;;;;7.56;59.60;99757.13;4409520;32;21989;-92
2020/12/14 02:36:42;;;;;;;15.15;8.38;;;;;;;7.55;59.60;99751.09;4410246;32;20110;-93
2020/12/14 02:39:07;;;;;;;15.82;8.18;;;;;;;7.37;59.59;99760.09;4411773;32;20363;-92
2020/12/14 02:41:33;;;;;;;15.05;8.27;;;;;;;7.31;59.60;99760.19;4409937;32;20114;-93
2020/12/14 02:43:58;;;;;;;15.70;8.75;;;;;;;7.12;59.58;99764.03;4422472;32;22705;-93
2020/12/14 02:46:23;;;;;;;15.20;8.82;;;;;;;7.30;59.58;99760.22;4409797;32;20110;-92
2020/12/14 02:48:49;;;;;;;15.60;8.82;;;;;;;7.49;59.60;99753.81;4409320;32;24197;-93
2020/12/14 02:51:18;;;;;;;13.62;7.60;;;;;;;7.35;59.59;99764.47;4410784;32;26104;-93
2020/12/14 02:53:43;;;;;;;14.35;8.43;;;;;;;7.39;59.58;99760.06;4410516;32;20093;-91
2020/12/14 02:56:09;;;;;;;14.00;7.97;;;;;;;7.46;59.59;99763.41;4409851;32;20452;-93
2020/12/14 02:58:34;;;;;;;13.93;7.35;;;;;;;7.38;59.59;99771.31;4409487;32;24771;-93
2020/12/14 03:00:59;;;;;;;15.15;8.10;;;;;;;7.34;59.59;99774.84;4409325;32;32548;-91
2020/12/14 03:03:25;;;;;;;14.63;8.10;;;;;;;7.18;59.58;99781.19;4410039;32;20156;-92
2020/12/14 03:05:50;;;;;;;13.15;8.02;;;;;;;7.09;59.57;99784.75;4411327;32;20140;-92
2020/12/14 03:08:16;;;;;;;13.05;7.53;;;;;;;7.12;59.58;99784.72;4409178;32;26122;-93
2020/12/14 03:10:41;;;;;;;11.98;7.35;;;;;;;7.09;59.57;99784.75;4409521;32;20085;-92
2020/12/14 03:13:07;;;;;;;13.27;8.07;;;;;;;7.17;59.57;99795.00;4409332;32;25917;-91
2020/12/14 03:15:32;;;;;;;12.13;7.47;;;;;;;6.94;59.57;99798.84;4409572;32;20106;-92
2020/12/14 03:17:57;;;;;;;17.67;8.77;;;;;;;7.16;59.57;99794.16;4409341;32;29213;-92
2020/12/14 03:20:23;;;;;;;14.10;8.07;;;;;;;7.29;59.58;99797.34;4410859;32;29265;-93
2020/12/14 03:22:48;;;;;;;15.52;8.75;;;;;;;7.44;59.59;99796.25;4409292;32;21760;-93
2020/12/14 03:25:13;;;;;;;15.10;7.60;;;;;;;7.58;59.60;99795.09;4409237;32;24315;-93
2020/12/14 03:27:39;;;;;;;13.52;8.10;;;;;;;7.80;59.61;99799.84;4409593;32;20109;-93
2020/12/14 03:30:05;;;;;;;13.15;8.45;;;;;;;7.85;59.62;99805.81;4409151;32;28194;-92
2020/12/14 03:32:30;;;;;;;16.05;9.00;;;;;;;7.47;59.60;99799.62;4408616;32;20106;-93
2020/12/14 03:34:56;;;;;;;15.85;8.48;;;;;;;7.31;59.58;99795.59;4411324;32;20126;-93
2020/12/14 03:37:21;;;;;;;16.92;8.65;;;;;;;7.44;59.59;99804.84;4409225;32;25194;-92
2020/12/14 03:39:46;;;;;;;12.55;7.50;;;;;;;7.56;59.60;99807.22;4409554;32;20173;-92
2020/12/14 03:42:12;;;;;;;16.58;8.85;;;;;;;7.48;59.60;99808.25;4409589;32;20110;-92
2020/12/14 03:44:38;;;;;;;14.90;8.07;;;;;;;7.63;59.61;99813.16;4409476;32;20122;-94
2020/12/14 03:47:03;;;;;;;16.08;8.88;;;;;;;7.84;59.62;99807.56;4410031;32;20163;-93
2020/12/14 03:49:29;;;;;;;17.33;9.48;;;;;;;8.04;59.62;99806.25;4410378;32;20451;-93
2020/12/14 03:51:54;;;;;;;16.62;9.85;;;;;;;8.14;59.64;99806.06;4408674;32;22855;-93
2020/12/14 03:54:21;;;;;;;19.08;9.77;;;;;;;8.18;59.63;99805.09;4408480;32;20102;-93
2020/12/14 03:56:47;;;;;;;16.55;9.50;;;;;;;8.35;59.64;99815.16;4421613;32;20081;-93
2020/12/14 03:59:12;;;;;;;18.75;10.52;;;;;;;8.31;59.64;99821.28;4409264;32;20086;-92
2020/12/14 04:01:37;;;;;;;20.65;11.38;;;;;;;8.13;59.63;99825.09;4385208;32;20484;-93
2020/12/14 04:04:03;;;;;;;15.50;9.20;;;;;;;7.95;59.62;99826.31;4385073;32;20103;-93
2020/12/14 04:06:28;;;;;;;16.17;8.90;;;;;;;7.94;59.62;99826.34;4409025;32;20124;-93
2020/12/14 04:08:54;;;;;;;15.10;8.65;;;;;;;8.07;59.62;99829.56;4408837;32;20752;-92
2020/12/14 04:11:19;;;;;;;13.32;8.65;;;;;;;8.05;59.62;99836.53;4409122;32;20102;-93
2020/12/14 04:13:46;;;;;;;15.45;9.30;;;;;;;7.96;59.62;99838.38;4408613;32;24175;-93
2020/12/14 04:16:12;;;;;;;13.75;8.57;;;;;;;7.68;59.60;99837.22;4411327;32;20680;-92
2020/12/14 04:18:37;;;;;;;14.00;8.27;;;;;;;7.58;59.60;99841.75;4409202;32;20128;-93
2020/12/14 04:21:03;;;;;;;15.10;8.52;;;;;;;7.84;59.62;99843.84;4409171;32;20157;-91
2020/12/14 04:23:29;;;;;;;15.35;8.93;;;;;;;8.00;59.63;99850.41;4408734;32;20140;-92
2020/12/14 04:25:54;;;;;;;17.27;10.13;;;;;;;8.11;59.63;99852.78;4409009;32;20086;-91
2020/12/14 04:28:19;;;;;;;40.05;20.50;;;;;;;8.25;59.64;99861.13;4383194;32;32213;-91
2020/12/14 04:30:45;;;;;;;21.17;11.48;;;;;;;8.28;59.64;99862.78;4384482;32;20228;-91
2020/12/14 04:33:10;;;;;;;18.15;9.43;;;;;;;8.23;59.64;99860.31;4408724;32;20138;-93
2020/12/14 04:35:36;;;;;;;40.63;22.48;;;;;;;8.37;59.65;99870.44;4408826;32;20105;-92
2020/12/14 04:38:01;;;;;;;21.52;11.20;;;;;;;8.36;59.63;99866.13;4383638;32;20125;-92
2020/12/14 04:40:27;;;;;;;33.08;18.77;;;;;;;8.26;59.64;99870.59;4383082;32;20132;-92
2020/12/14 04:42:53;;;;;;;33.17;20.73;;;;;;;8.12;59.63;99885.63;4384458;32;20106;-93
2020/12/14 04:45:18;;;;;;;20.15;12.88;;;;;;;7.95;59.62;99887.66;4399631;32;20427;-91
2020/12/14 04:47:44;;;;;;;18.73;11.15;;;;;;;7.69;59.61;99881.25;4385806;32;20098;-92
2020/12/14 04:50:09;;;;;;;23.50;12.70;;;;;;;7.56;59.60;99890.09;4385148;32;20110;-93
2020/12/14 04:52:35;;;;;;;25.20;14.32;;;;;;;7.65;59.60;99899.47;4385552;32;20148;-93
2020/12/14 04:55:01;;;;;;;22.92;11.85;;;;;;;7.51;59.60;99901.44;4385480;32;20149;-92
2020/12/14 04:57:27;;;;;;;19.40;12.45;;;;;;;7.97;59.62;99904.03;4400092;32;20093;-92
2020/12/14 04:59:52;;;;;;;23.50;12.57;;;;;;;7.86;59.62;99911.19;4386038;32;20483;-93
2020/12/14 05:02:17;;;;;;;25.77;14.15;;;;;;;7.70;59.61;99914.03;4385629;32;20110;-92
2020/12/14 05:04:43;;;;;;;19.55;11.70;;;;;;;7.89;59.62;99917.16;4384899;32;24956;-90
2020/12/14 05:07:12;;;;;;;22.17;12.80;;;;;;;7.65;59.60;99915.00;4385490;32;20116;-94
2020/12/14 05:09:37;;;;;;;24.37;14.00;;;;;;;7.63;59.61;99925.41;4386214;32;20478;-92
2020/12/14 05:12:03;;;;;;;22.33;13.52;;;;;;;7.63;59.61;99932.31;4386720;32;20162;-89
2020/12/14 05:14:30;;;;;;;20.60;11.23;;;;;;;7.68;59.61;99931.34;4385390;32;20208;-92
2020/12/14 05:16:55;;;;;;;19.25;11.75;;;;;;;7.90;59.61;99941.34;4385714;32;20196;-91
2020/12/14 05:19:25;;;;;;;18.75;10.57;;;;;;;7.37;59.59;99941.38;4385448;32;20396;-91
2020/12/14 05:21:54;;;;;;;20.73;11.45;;;;;;;7.61;59.60;99944.44;4385691;32;20167;-91
2020/12/14 05:24:21;;;;;;;16.75;9.88;;;;;;;7.50;59.60;99946.34;4385604;32;20106;-92
2020/12/14 05:26:48;;;;;;;18.65;11.15;;;;;;;7.61;59.61;99950.47;4411720;32;20161;-91
2020/12/14 05:29:23;;;;;;;21.02;10.93;;;;;;;7.67;59.60;99944.34;4398171;32;20105;-91
2020/12/14 05:32:18;;;;;;;19.23;10.75;;;;;;;7.75;59.61;99941.59;4385981;32;20474;-89
2020/12/14 05:34:43;;;;;;;19.08;10.80;;;;;;;7.72;59.61;99954.59;4391252;32;20815;-91
2020/12/14 05:37:10;;;;;;;17.95;10.30;;;;;;;7.80;59.61;99952.72;4398196;32;20120;-89
2020/12/14 05:39:37;;;;;;;18.45;9.68;;;;;;;7.68;59.60;99959.00;4386168;32;20357;-90
2020/12/14 05:42:10;;;;;;;16.23;9.90;;;;;;;7.80;59.61;99965.69;4410938;32;20793;-90
2020/12/14 05:44:36;;;;;;;16.80;9.88;;;;;;;7.67;59.61;99958.13;4423176;32;20423;-91
2020/12/14 05:47:01;;;;;;;16.98;9.52;;;;;;;7.58;59.60;99965.22;4410831;32;20453;-91
2020/12/14 05:49:27;;;;;;;23.40;11.43;;;;;;;7.74;59.61;99965.81;4410058;32;20101;-89
2020/12/14 05:51:59;;;;;;;16.77;9.57;;;;;;;7.61;59.60;99975.53;4385251;32;20451;-94
2020/12/14 05:54:25;;;;;;;20.23;10.20;;;;;;;7.75;59.61;99972.69;4411910;32;20795;-93
2020/12/14 05:56:50;;;;;;;16.83;9.60;;;;;;;8.03;59.62;99979.09;4385344;32;20126;-94
2020/12/14 05:59:15;;;;;;;17.20;9.98;;;;;;;8.13;59.63;99978.06;4410415;32;20137;-94
2020/12/14 06:01:42;;;;;;;19.25;9.80;;;;;;;8.11;59.63;99981.56;4423144;32;20117;-92
2020/12/14 06:04:07;;;;;;;25.58;9.57;;;;;;;8.13;59.63;99982.41;4410156;32;20098;-93
2020/12/14 06:06:32;;;;;;;17.98;10.10;;;;;;;7.87;59.62;99993.22;4410419;32;20440;-93
2020/12/14 06:09:06;;;;;;;19.25;10.52;;;;;;;7.94;59.62;99989.62;4386313;32;21248;-93
2020/12/14 06:11:35;;;;;;;19.52;11.00;;;;;;;8.00;59.63;99995.56;4385201;32;20124;-93
2020/12/14 06:14:02;;;;;;;19.37;10.88;;;;;;;7.92;59.62;99991.41;4397806;32;20082;-93
2020/12/14 06:16:29;;;;;;;34.55;17.40;;;;;;;8.17;59.63;100003.06;4385184;32;20467;-92
2020/12/14 06:18:57;;;;;;;28.70;14.48;;;;;;;8.15;59.63;100010.00;4385134;32;20160;-93
2020/12/14 06:21:28;;;;;;;24.83;13.40;;;;;;;8.25;59.64;100013.28;4386540;32;20102;-93
2020/12/14 06:23:53;;;;;;;22.80;12.65;;;;;;;7.97;59.62;100012.91;4386877;32;20085;-93
2020/12/14 06:26:22;;;;;;;26.65;14.63;;;;;;;7.63;59.61;100020.41;4384987;32;20125;-94
2020/12/14 06:28:51;;;;;;;24.77;12.35;;;;;;;7.89;59.62;100012.19;4384944;32;20695;-93
2020/12/14 06:31:33;;;;;;;24.37;11.68;;;;;;;7.98;59.62;100015.47;4385390;32;20132;-92
2020/12/14 06:34:02;;;;;;;21.83;11.35;;;;;;;8.01;59.63;100022.34;4385605;32;20113;-94
2020/12/14 06:36:30;;;;;;;24.73;12.90;;;;;;;7.96;59.62;100026.75;4386352;32;20132;-94
2020/12/14 06:38:55;;;;;;;21.02;11.12;;;;;;;7.97;59.62;100023.28;4385024;32;20415;-93
2020/12/14 06:41:22;;;;;;;24.37;11.45;;;;;;;7.88;59.62;100024.31;4384705;32;20125;-94
2020/12/14 06:43:49;;;;;;;22.45;11.00;;;;;;;7.87;59.62;100029.50;4410072;32;20090;-92
2020/12/14 06:46:25;;;;;;;26.25;12.57;;;;;;;7.96;59.62;100032.78;4385124;32;20100;-92
2020/12/14 06:48:52;;;;;;;22.77;11.93;;;;;;;7.85;59.62;100031.28;4385259;32;20204;-96
2020/12/14 06:51:17;;;;;;;20.50;10.88;;;;;;;7.60;59.60;100023.91;4387760;32;20105;-94
2020/12/14 06:53:53;;;;;;;21.80;10.85;;;;;;;7.90;59.61;100029.47;4384268;32;20893;-94
2020/12/14 06:56:27;;;;;;;19.95;10.85;;;;;;;7.91;59.61;100024.25;4384675;32;20085;-95
2020/12/14 06:58:53;;;;;;;18.02;11.15;;;;;;;7.79;59.61;100031.34;4409837;32;20099;-94
2020/12/14 07:01:32;;;;;;;21.55;11.52;;;;;;;7.74;59.61;100023.66;4384915;32;20149;-93
2020/12/14 07:03:59;;;;;;;22.30;11.18;;;;;;;7.92;59.62;100033.72;4398777;32;20762;-94
2020/12/14 07:06:25;;;;;;;18.45;11.63;;;;;;;8.00;59.63;100031.00;4382557;32;20094;-93
2020/12/14 07:08:51;;;;;;;23.62;11.60;;;;;;;8.18;59.63;100045.38;4382611;32;20148;-94
2020/12/14 07:11:17;;;;;;;20.88;11.50;;;;;;;8.35;59.64;100040.81;4382589;32;20133;-93
2020/12/14 07:13:43;;;;;;;20.75;12.10;;;;;;;8.23;59.64;100041.81;4382900;32;20090;-94
2020/12/14 07:16:10;;;;;;;17.90;10.73;;;;;;;8.26;59.63;100043.50;4395227;32;20116;-94
2020/12/14 07:18:36;;;;;;;18.45;10.35;;;;;;;8.30;59.64;100051.22;4385326;32;20149;-92
2020/12/14 07:21:08;;;;;;;19.00;10.73;;;;;;;8.54;59.65;100042.16;4382290;32;20114;-93
2020/12/14 07:23:38;;;;;;;20.77;11.77;;;;;;;8.43;59.64;100044.09;4384335;32;20066;-94
2020/12/14 07:26:04;;;;;;;22.45;12.23;;;;;;;8.29;59.63;100044.34;4383402;32;20113;-94
2020/12/14 07:28:36;;;;;;;22.77;12.13;;;;;;;8.36;59.64;100049.44;4383006;32;20459;-92
2020/12/14 07:31:06;;;;;;;20.67;11.70;;;;;;;8.38;59.65;100050.25;4384714;32;20131;-94
2020/12/14 07:33:32;;;;;;;21.05;11.55;;;;;;;8.35;59.64;100050.31;4385042;32;20169;-93
2020/12/14 07:36:02;;;;;;;20.85;11.85;;;;;;;8.45;59.65;100046.66;4382994;32;20141;-91
2020/12/14 07:38:28;;;;;;;21.85;11.20;;;;;;;8.44;59.64;100052.72;4382977;32;20110;-92
2020/12/14 07:41:04;;;;;;;20.40;12.13;;;;;;;8.42;59.64;100046.72;4395188;32;20126;-92
2020/12/14 07:43:29;;;;;;;22.33;11.75;;;;;;;8.36;59.64;100045.09;4382867;32;20110;-91
2020/12/14 07:45:55;;;;;;;20.98;10.82;;;;;;;8.21;59.63;100045.34;4382671;32;20126;-92
2020/12/14 07:48:20;;;;;;;21.77;11.32;;;;;;;8.68;59.66;100044.47;4382139;32;30144;-92
2020/12/14 07:50:45;;;;;;;17.70;10.85;;;;;;;8.42;59.64;100044.97;4382235;32;20169;-92
2020/12/14 07:53:11;;;;;;;18.10;10.52;;;;;;;8.30;59.63;100052.97;4382692;32;20138;-92
2020/12/14 07:55:38;;;;;;;21.42;11.05;;;;;;;8.42;59.64;100044.13;4407593;32;20120;-91
2020/12/14 07:58:03;;;;;;;19.73;11.30;;;;;;;8.43;59.64;100045.84;4383486;32;20496;-90
2020/12/14 08:00:29;;;;;;;18.67;10.38;;;;;;;8.55;59.65;100045.62;4383778;32;20106;-92
2020/12/14 08:03:01;;;;;;;22.37;10.70;;;;;;;8.27;59.64;100053.84;4381724;32;29417;-92
2020/12/14 08:05:26;;;;;;;18.20;9.70;;;;;;;8.64;59.66;100058.41;4383283;32;20164;-91
2020/12/14 08:08:04;;;;;;;21.25;11.45;;;;;;;8.70;59.66;100057.44;4407025;32;20150;-92
2020/12/14 08:10:31;;;;;;;20.42;11.23;;;;;;;8.74;59.67;100057.34;4382249;32;20169;-92
2020/12/14 08:13:15;;;;;;;18.67;10.77;;;;;;;8.38;59.65;100064.09;4384240;32;20124;-92
2020/12/14 08:15:41;;;;;;;17.83;9.75;;;;;;;8.69;59.66;100064.34;4394948;32;20074;-93
2020/12/14 08:18:07;;;;;;;18.62;10.30;;;;;;;8.72;59.67;100053.91;4407731;32;20400;-93
2020/12/14 08:20:33;;;;;;;17.30;10.73;;;;;;;8.69;59.66;100061.75;4396246;32;20117;-91
2020/12/14 08:22:59;;;;;;;18.92;9.75;;;;;;;8.40;59.65;100058.88;4383687;32;20090;-91
2020/12/14 08:25:29;;;;;;;18.05;10.57;;;;;;;8.53;59.66;100057.78;4408937;32;20163;-92
2020/12/14 08:27:59;;;;;;;17.83;10.15;;;;;;;8.59;59.66;100070.63;4385636;32;20112;-92
2020/12/14 08:30:25;;;;;;;20.10;10.80;;;;;;;8.19;59.63;100075.63;4384075;32;20807;-93
2020/12/14 08:33:10;;;;;;;19.50;9.73;;;;;;;8.58;59.65;100068.91;4383837;32;20399;-92
2020/12/14 08:35:36;;;;;;;20.52;10.68;;;;;;;8.61;59.66;100069.69;4408674;32;20117;-92
2020/12/14 08:38:07;;;;;;;19.65;9.90;;;;;;;8.67;59.66;100076.50;4383906;32;20776;-92
2020/12/14 08:40:32;;;;;;;18.00;9.73;;;;;;;8.70;59.66;100079.03;4421675;32;20101;-92
2020/12/14 08:43:11;;;;;;;19.08;10.55;;;;;;;8.58;59.65;100087.94;4411105;32;20127;-91
2020/12/14 08:45:39;;;;;;;18.80;9.57;;;;;;;8.16;59.63;100089.50;4383731;32;20121;-92
2020/12/14 08:48:04;;;;;;;19.45;10.98;;;;;;;8.27;59.64;100090.16;4408685;32;20458;-91
2020/12/14 08:50:31;;;;;;;18.17;10.82;;;;;;;8.36;59.64;100091.78;4383429;32;20686;-92
2020/12/14 08:53:02;;;;;;;18.48;10.60;;;;;;;8.45;59.65;100088.16;4383901;32;20137;-92
2020/12/14 08:55:40;;;;;;;17.23;10.93;;;;;;;8.74;59.66;100087.63;4397274;32;20098;-92
2020/12/14 08:58:07;;;;;;;20.77;12.07;;;;;;;8.62;59.66;100088.72;4384388;32;20167;-92
2020/12/14 09:00:32;;;;;;;21.20;12.50;;;;;;;8.87;59.67;100099.50;4383677;32;20122;-92
2020/12/14 09:03:01;;;;;;;24.17;13.07;;;;;;;8.69;59.66;100105.88;4383534;32;20440;-92
2020/12/14 09:05:27;;;;;;;27.25;13.95;;;;;;;8.57;59.65;100103.53;4383633;32;20140;-92
2020/12/14 09:07:52;;;;;;;23.62;13.98;;;;;;;8.57;59.65;100099.19;4383663;32;20387;-91
2020/12/14 09:10:19;;;;;;;22.98;12.50;;;;;;;8.60;59.66;100103.47;4399452;32;20553;-92
2020/12/14 09:12:45;;;;;;;19.90;11.05;;;;;;;8.54;59.65;100114.81;4384065;32;20158;-92
2020/12/14 09:15:10;;;;;;;19.52;11.63;;;;;;;8.55;59.65;100110.50;4383524;32;20133;-92
2020/12/14 09:17:36;;;;;;;22.65;12.30;;;;;;;8.76;59.67;100097.13;4382944;32;24931;-92
2020/12/14 09:20:02;;;;;;;20.95;11.50;;;;;;;8.38;59.65;100090.03;4383639;32;20167;-92
2020/12/14 09:22:27;;;;;;;22.15;12.77;;;;;;;8.72;59.66;100085.06;4408479;32;20085;-91
2020/12/14 09:24:53;;;;;;;21.48;12.05;;;;;;;8.70;59.66;100085.97;4384481;32;20103;-93
2020/12/14 09:27:18;;;;;;;21.67;12.95;;;;;;;8.81;59.66;100084.03;4383402;32;20159;-92
2020/12/14 09:29:45;;;;;;;22.33;13.27;;;;;;;8.77;59.67;100077.22;4382807;32;20125;-93
2020/12/14 09:32:11;;;;;;;32.60;17.75;;;;;;;8.96;59.67;100075.06;4383865;32;20160;-94
2020/12/14 09:34:37;;;;;;;25.37;14.27;;;;;;;8.84;59.67;100074.44;4383250;32;20133;-92
2020/12/14 09:37:02;;;;;;;24.73;13.93;;;;;;;8.88;59.67;100080.44;4383564;32;20129;-93
2020/12/14 09:39:30;;;;;;;32.28;17.92;;;;;;;9.14;59.69;100066.91;4384650;32;20114;-91
2020/12/14 09:41:56;;;;;;;27.35;13.82;;;;;;;8.95;59.67;100071.63;4384103;32;20098;-92
2020/12/14 09:44:21;;;;;;;22.52;13.10;;;;;;;9.04;59.68;100073.19;4383272;32;20108;-92
2020/12/14 09:46:47;;;;;;;19.35;11.95;;;;;;;9.23;59.69;100069.34;4383124;32;20121;-92
2020/12/14 09:49:12;;;;;;;23.45;13.50;;;;;;;9.35;59.70;100060.41;4382679;32;23766;-92
2020/12/14 09:51:37;;;;;;;19.67;12.48;;;;;;;9.62;59.71;100064.97;4383357;32;23171;-90
2020/12/14 09:54:03;;;;;;;24.95;13.77;;;;;;;9.59;59.71;100072.00;4383776;32;20133;-92
2020/12/14 09:56:29;;;;;;;23.45;12.75;;;;;;;9.49;59.71;100067.03;4383103;32;20110;-91
2020/12/14 09:58:54;;;;;;;21.67;12.63;;;;;;;9.29;59.70;100063.16;4383266;32;20110;-93
2020/12/14 10:01:20;;;;;;;25.92;12.98;;;;;;;9.53;59.71;100060.84;4382883;32;20169;-91
2020/12/14 10:03:45;;;;;;;21.92;12.88;;;;;;;9.39;59.70;100068.09;4383384;32;20157;-91
2020/12/14 10:06:14;;;;;;;26.05;13.73;;;;;;;9.33;59.69;100068.25;4386429;32;20114;-92
2020/12/14 10:08:40;;;;;;;23.62;14.48;;;;;;;9.25;59.69;100072.75;4383266;32;20123;-92
2020/12/14 10:11:07;;;;;;;21.05;13.07;;;;;;;9.32;59.69;100076.91;4383245;32;20086;-91
2020/12/14 10:13:32;;;;;;;24.55;14.00;;;;;;;9.39;59.70;100078.50;4383321;32;20105;-92
2020/12/14 10:15:58;;;;;;;29.23;13.88;;;;;;;9.54;59.71;100070.38;4383316;32;20214;-91
2020/12/14 10:18:24;;;;;;;24.75;14.65;;;;;;;9.17;59.69;100077.22;4382754;32;21252;-92
2020/12/14 10:20:49;;;;;;;23.92;14.52;;;;;;;9.37;59.70;100069.03;4385053;32;20191;-92
2020/12/14 10:23:14;;;;;;;28.25;15.10;;;;;;;9.14;59.69;100067.78;4382889;32;20122;-91
2020/12/14 10:25:41;;;;;;;24.60;14.20;;;;;;;9.19;59.68;100065.06;4383033;32;20137;-92
2020/12/14 10:28:06;;;;;;;25.67;13.15;;;;;;;9.34;59.70;100064.75;4382900;32;20433;-91
2020/12/14 10:30:33;;;;;;;26.08;13.88;;;;;;;9.71;59.71;100058.72;4383592;32;20153;-92
2020/12/14 10:32:58;;;;;;;24.85;15.30;;;;;;;9.58;59.71;100063.34;4385866;32;20439;-91
2020/12/14 10:35:24;;;;;;;27.05;15.65;;;;;;;9.47;59.70;100061.00;4383029;32;20228;-92
2020/12/14 10:37:49;;;;;;;22.00;13.75;;;;;;;9.50;59.71;100060.94;4382911;32;20157;-91
2020/12/14 10:40:14;;;;;;;25.55;14.23;;;;;;;9.39;59.70;100070.69;4382675;32;20177;-92
2020/12/14 10:42:41;;;;;;;22.62;13.73;;;;;;;9.15;59.69;100072.06;4395640;32;20523;-92
2020/12/14 10:45:07;;;;;;;28.00;15.85;;;;;;;9.11;59.67;100062.66;4383160;32;20483;-91
2020/12/14 10:47:32;;;;;;;25.95;15.30;;;;;;;9.33;59.69;100073.44;4383184;32;20165;-91
2020/12/14 10:49:58;;;;;;;33.90;18.45;;;;;;;9.21;59.69;100071.94;4383219;32;20113;-92
2020/12/14 10:52:23;;;;;;;34.30;20.17;;;;;;;9.64;59.71;100064.94;4383164;32;20140;-92
2020/12/14 10:54:50;;;;;;;34.85;19.55;;;;;;;9.70;59.71;100060.47;4381913;32;23633;-92
2020/12/14 10:57:16;;;;;;;35.45;19.10;;;;;;;9.80;59.73;100058.50;4383086;32;20105;-92
2020/12/14 10:59:42;;;;;;;32.70;19.30;;;;;;;9.63;59.71;100073.63;4382748;32;20094;-92
2020/12/14 11:02:07;;;;;;;36.88;19.52;;;;;;;9.89;59.73;100066.06;4386382;32;20178;-92
2020/12/14 11:04:32;;;;;;;32.38;19.33;;;;;;;10.01;59.73;100068.38;4382201;32;20145;-91
2020/12/14 11:06:58;;;;;;;35.03;20.33;;;;;;;9.73;59.72;100060.41;4382006;32;22799;-93
2020/12/14 11:09:23;;;;;;;32.72;19.37;;;;;;;9.92;59.73;100067.75;4382646;32;20110;-92
2020/12/14 11:11:48;;;;;;;38.30;20.98;;;;;;;9.89;59.73;100073.88;4382049;32;25572;-92
2020/12/14 11:14:14;;;;;;;39.10;20.88;;;;;;;10.21;59.74;100070.53;4395282;32;20137;-92
2020/12/14 11:16:42;;;;;;;49.72;24.63;;;;;;;9.99;59.73;100074.53;4397710;32;20160;-91
2020/12/14 11:19:07;;;;;;;37.92;22.05;;;;;;;10.01;59.73;100084.00;4383118;32;20070;-91
2020/12/14 11:21:33;;;;;;;39.10;21.02;;;;;;;10.09;59.74;100084.66;4382474;32;20116;-92